Time,TemperatureF,DewpointF,PressureIn,WindDirection,WindDirectionDegrees,WindSpeedMPH,WindSpeedGustMPH,Humidity,HourlyPrecipIn,Conditions,Clouds,dailyrainin,SoftwareType,DateUTC
2013-06-14 00:01:00,49.1,41.5,29.90,SE,135,3.6,8.5,75,0.00,,,0.00,WUHU216HW,2013-06-14 06:01:00,
2013-06-14 00:11:00,49.0,41.3,29.90,SSW,203,3.6,6.9,75,0.00,,,0.00,WUHU216HW,2013-06-14 06:11:00,
2013-06-14 00:21:00,48.8,41.5,29.91,South,180,6.5,6.5,76,0.00,,,0.00,WUHU216HW,2013-06-14 06:21:00,
2013-06-14 00:31:00,49.0,41.7,29.91,SW,225,2.0,5.4,76,0.00,,,0.00,WUHU216HW,2013-06-14 06:31:00,
2013-06-14 00:41:00,49.0,41.7,29.90,SSW,203,1.8,6.7,76,0.00,,,0.00,WUHU216HW,2013-06-14 06:41:00,
2013-06-14 00:51:00,49.1,41.5,29.90,SE,135,1.8,4.5,75,0.00,,,0.00,WUHU216HW,2013-06-14 06:51:00,
2013-06-14 01:01:00,49.1,41.5,29.90,SE,135,3.4,6.7,75,0.00,,,0.00,WUHU216HW,2013-06-14 07:01:00,
2013-06-14 01:11:00,49.0,41.3,29.89,SSE,158,2.5,5.4,75,0.00,,,0.00,WUHU216HW,2013-06-14 07:11:00,
2013-06-14 01:21:00,48.6,41.0,29.90,SSW,203,2.5,7.8,75,0.00,,,0.00,WUHU216HW,2013-06-14 07:21:00,
2013-06-14 01:31:00,48.4,40.8,29.90,SSW,203,4.0,7.2,75,0.00,,,0.00,WUHU216HW,2013-06-14 07:31:00,
2013-06-14 01:41:00,48.2,40.6,29.90,SSE,158,2.9,5.1,75,0.00,,,0.00,WUHU216HW,2013-06-14 07:41:00,
2013-06-14 01:51:00,48.1,40.8,29.90,South,180,4.3,4.9,76,0.00,,,0.00,WUHU216HW,2013-06-14 07:51:00,
2013-06-14 02:01:00,47.9,40.6,29.90,SSW,203,2.7,5.8,76,0.00,,,0.00,WUHU216HW,2013-06-14 08:01:00,
2013-06-14 02:11:00,47.9,40.6,29.90,SSE,158,3.4,5.6,76,0.00,,,0.00,WUHU216HW,2013-06-14 08:11:00,
2013-06-14 02:22:00,47.9,40.6,29.90,South,180,1.8,6.5,76,0.00,,,0.00,WUHU216HW,2013-06-14 08:22:00,
2013-06-14 02:32:00,47.9,40.6,29.90,SSE,158,0.2,2.0,76,0.00,,,0.00,WUHU216HW,2013-06-14 08:32:00,
2013-06-14 02:42:00,47.7,40.8,29.89,SE,135,1.8,3.8,77,0.00,,,0.00,WUHU216HW,2013-06-14 08:42:00,
2013-06-14 02:52:00,47.5,40.6,29.89,SSE,158,3.8,5.6,77,0.00,,,0.00,WUHU216HW,2013-06-14 08:52:00,
2013-06-14 03:02:00,47.5,40.6,29.89,South,180,2.7,5.6,77,0.00,,,0.00,WUHU216HW,2013-06-14 09:02:00,
2013-06-14 03:12:00,47.3,40.5,29.89,SSE,158,2.5,4.9,77,0.00,,,0.00,WUHU216HW,2013-06-14 09:12:00,
2013-06-14 03:22:00,47.2,40.7,29.89,South,180,1.6,3.6,78,0.00,,,0.00,WUHU216HW,2013-06-14 09:22:00,
2013-06-14 03:32:00,47.0,40.5,29.89,SSE,158,2.9,4.0,78,0.00,,,0.00,WUHU216HW,2013-06-14 09:32:00,
2013-06-14 03:42:00,46.4,40.0,29.89,ESE,113,2.2,4.9,78,0.00,,,0.00,WUHU216HW,2013-06-14 09:42:00,
2013-06-14 03:52:00,46.4,40.0,29.90,SW,225,4.7,4.7,78,0.00,,,0.00,WUHU216HW,2013-06-14 09:52:00,
2013-06-14 04:02:00,46.3,39.5,29.89,SSW,203,1.8,5.4,77,0.00,,,0.00,WUHU216HW,2013-06-14 10:02:00,
2013-06-14 04:12:00,46.3,39.5,29.90,SSE,158,0.9,4.7,77,0.00,,,0.00,WUHU216HW,2013-06-14 10:12:00,
2013-06-14 04:22:00,46.3,39.5,29.90,SSE,158,0.4,2.5,77,0.00,,,0.00,WUHU216HW,2013-06-14 10:22:00,
2013-06-14 04:32:00,46.1,39.3,29.90,SSE,158,2.0,5.6,77,0.00,,,0.00,WUHU216HW,2013-06-14 10:32:00,
2013-06-14 04:42:00,45.9,39.2,29.90,SSW,203,2.5,2.5,77,0.00,,,0.00,WUHU216HW,2013-06-14 10:42:00,
2013-06-14 04:52:00,45.7,39.2,29.90,SE,135,0.7,3.6,78,0.00,,,0.00,WUHU216HW,2013-06-14 10:52:00,
2013-06-14 05:02:00,45.5,39.1,29.90,SE,135,2.7,4.0,78,0.00,,,0.00,WUHU216HW,2013-06-14 11:02:00,
2013-06-14 05:12:00,45.4,38.9,29.90,SSE,158,2.0,2.5,78,0.00,,,0.00,WUHU216HW,2013-06-14 11:12:00,
2013-06-14 05:22:00,45.2,39.1,29.90,SE,135,1.1,2.5,79,0.00,,,0.00,WUHU216HW,2013-06-14 11:22:00,
2013-06-14 05:32:00,45.0,38.9,29.91,North,0,0.4,2.2,79,0.00,,,0.00,WUHU216HW,2013-06-14 11:32:00,
2013-06-14 05:42:00,44.6,38.5,29.91,SE,135,0.4,1.1,79,0.00,,,0.00,WUHU216HW,2013-06-14 11:42:00,
2013-06-14 05:52:00,44.5,38.7,29.92,East,90,0.4,1.8,80,0.00,,,0.00,WUHU216HW,2013-06-14 11:52:00,
2013-06-14 06:02:00,44.3,38.5,29.92,East,90,0.9,1.1,80,0.00,,,0.00,WUHU216HW,2013-06-14 12:02:00,
2013-06-14 06:12:00,44.3,38.8,29.92,ESE,113,0.9,2.0,81,0.00,,,0.00,WUHU216HW,2013-06-14 12:12:00,
2013-06-14 06:22:00,44.1,38.6,29.93,SE,135,0.7,1.3,81,0.00,,,0.00,WUHU216HW,2013-06-14 12:22:00,
2013-06-14 06:32:00,44.3,38.8,29.93,ENE,68,0.4,1.1,81,0.00,,,0.00,WUHU216HW,2013-06-14 12:32:00,
2013-06-14 06:42:00,44.3,38.8,29.94,SSE,158,0.7,1.6,81,0.00,,,0.00,WUHU216HW,2013-06-14 12:42:00,
2013-06-14 06:52:00,44.6,39.2,29.94,WSW,248,0.4,1.3,81,0.00,,,0.00,WUHU216HW,2013-06-14 12:52:00,
2013-06-14 07:02:00,44.6,39.5,29.94,North,0,0.4,2.9,82,0.00,,,0.00,WUHU216HW,2013-06-14 13:02:00,
2013-06-14 07:12:00,44.6,39.2,29.94,SW,225,1.1,2.5,81,0.00,,,0.00,WUHU216HW,2013-06-14 13:12:00,
2013-06-14 07:22:00,44.8,39.3,29.94,ESE,113,0.0,2.5,81,0.00,,,0.00,WUHU216HW,2013-06-14 13:22:00,
2013-06-14 07:32:00,45.0,39.9,29.94,NE,45,1.3,2.2,82,0.00,,,0.00,WUHU216HW,2013-06-14 13:32:00,
2013-06-14 07:43:00,45.0,39.9,29.94,NE,45,0.4,2.9,82,0.00,,,0.00,WUHU216HW,2013-06-14 13:43:00,
2013-06-14 07:53:00,45.2,40.1,29.94,ENE,68,0.0,1.3,82,0.00,,,0.00,WUHU216HW,2013-06-14 13:53:00,
2013-06-14 08:03:00,45.7,40.6,29.94,SE,135,0.0,1.1,82,0.00,,,0.00,WUHU216HW,2013-06-14 14:03:00,
2013-06-14 08:13:00,46.1,40.6,29.94,West,270,1.8,2.7,81,0.00,,,0.00,WUHU216HW,2013-06-14 14:13:00,
2013-06-14 08:23:00,47.9,42.9,29.94,NE,45,3.4,3.4,83,0.00,,,0.00,WUHU216HW,2013-06-14 14:23:00,
2013-06-14 08:33:00,49.3,43.7,29.94,ENE,68,2.5,3.6,81,0.00,,,0.00,WUHU216HW,2013-06-14 14:33:00,
2013-06-14 08:43:00,49.9,43.6,29.94,WNW,293,0.4,2.7,79,0.00,,,0.00,WUHU216HW,2013-06-14 14:43:00,
2013-06-14 08:53:00,50.2,43.6,29.94,North,0,3.4,3.4,78,0.00,,,0.00,WUHU216HW,2013-06-14 14:53:00,
2013-06-14 09:03:00,49.9,43.2,29.95,NNE,23,0.0,1.6,78,0.00,,,0.00,WUHU216HW,2013-06-14 15:03:00,
2013-06-14 09:13:00,50.6,44.3,29.94,SW,225,2.5,3.4,79,0.00,,,0.00,WUHU216HW,2013-06-14 15:13:00,
2013-06-14 09:23:00,51.3,44.0,29.95,North,0,0.7,2.5,76,0.00,,,0.00,WUHU216HW,2013-06-14 15:23:00,
2013-06-14 09:33:00,51.3,44.0,29.95,NNE,23,0.0,1.8,76,0.00,,,0.00,WUHU216HW,2013-06-14 15:33:00,
2013-06-14 09:43:00,51.5,44.2,29.95,North,0,0.9,3.4,76,0.00,,,0.00,WUHU216HW,2013-06-14 15:43:00,
2013-06-14 09:53:00,52.2,44.9,29.95,West,270,2.0,2.5,76,0.00,,,0.00,WUHU216HW,2013-06-14 15:53:00,
2013-06-14 10:03:00,53.6,45.9,29.95,SE,135,0.4,6.7,75,0.00,,,0.00,WUHU216HW,2013-06-14 16:03:00,
2013-06-14 10:13:00,55.1,46.6,29.96,SSW,203,1.1,4.0,73,0.00,,,0.00,WUHU216HW,2013-06-14 16:13:00,
2013-06-14 10:23:00,55.6,47.1,29.95,SSW,203,2.0,4.9,73,0.00,,,0.00,WUHU216HW,2013-06-14 16:23:00,
2013-06-14 10:33:00,56.3,47.1,29.95,SE,135,3.8,6.3,71,0.00,,,0.00,WUHU216HW,2013-06-14 16:33:00,
2013-06-14 10:43:00,57.2,46.7,29.95,SSW,203,4.3,8.7,68,0.00,,,0.00,WUHU216HW,2013-06-14 16:43:00,
2013-06-14 10:53:00,58.7,46.5,29.95,SSW,203,4.5,6.9,64,0.00,,,0.00,WUHU216HW,2013-06-14 16:53:00,
2013-06-14 11:03:00,60.8,47.8,29.95,SW,225,0.9,7.2,62,0.00,,,0.00,WUHU216HW,2013-06-14 17:03:00,
2013-06-14 11:13:00,60.8,45.0,29.95,WSW,248,5.6,15.0,56,0.00,,,0.00,WUHU216HW,2013-06-14 17:13:00,
2013-06-14 11:23:00,59.9,42.3,29.95,WNW,293,9.2,10.1,52,0.00,,,0.00,WUHU216HW,2013-06-14 17:23:00,
2013-06-14 11:33:00,59.0,42.4,29.95,SW,225,9.6,9.6,54,0.00,,,0.00,WUHU216HW,2013-06-14 17:33:00,
2013-06-14 11:43:00,60.5,43.8,29.95,WNW,293,4.0,9.8,54,0.00,,,0.00,WUHU216HW,2013-06-14 17:43:00,
2013-06-14 11:53:00,61.7,44.4,29.95,WSW,248,6.3,13.9,53,0.00,,,0.00,WUHU216HW,2013-06-14 17:53:00,
2013-06-14 12:03:00,62.3,42.8,29.95,West,270,6.7,11.6,49,0.00,,,0.00,WUHU216HW,2013-06-14 18:03:00,
2013-06-14 12:13:00,61.4,42.0,29.95,NW,315,2.5,12.8,49,0.00,,,0.00,WUHU216HW,2013-06-14 18:13:00,
2013-06-14 12:23:00,61.2,41.3,29.96,WSW,248,4.7,10.7,48,0.00,,,0.00,WUHU216HW,2013-06-14 18:23:00,
2013-06-14 12:33:00,61.0,40.6,29.96,West,270,6.3,9.2,47,0.00,,,0.00,WUHU216HW,2013-06-14 18:33:00,
2013-06-14 12:43:00,62.3,41.7,29.96,WSW,248,9.2,13.4,47,0.00,,,0.00,WUHU216HW,2013-06-14 18:43:00,
2013-06-14 12:53:00,63.0,41.8,29.96,WSW,248,3.8,8.5,46,0.00,,,0.00,WUHU216HW,2013-06-14 18:53:00,
2013-06-14 13:04:00,62.3,39.4,29.96,West,270,6.3,14.1,43,0.00,,,0.00,WUHU216HW,2013-06-14 19:04:00,
2013-06-14 13:14:00,62.5,40.2,29.96,SW,225,3.8,9.2,44,0.00,,,0.00,WUHU216HW,2013-06-14 19:14:00,
2013-06-14 13:24:00,63.0,39.4,29.96,WSW,248,3.8,12.8,42,0.00,,,0.00,WUHU216HW,2013-06-14 19:24:00,
2013-06-14 13:34:00,63.5,41.7,29.96,West,270,6.9,11.4,45,0.00,,,0.00,WUHU216HW,2013-06-14 19:34:00,
2013-06-14 13:44:00,63.9,40.9,29.96,WSW,248,9.8,11.2,43,0.01,,,0.00,WUHU216HW,2013-06-14 19:44:00,
2013-06-14 13:54:00,63.7,39.0,29.96,WNW,293,12.1,13.0,40,0.01,,,0.00,WUHU216HW,2013-06-14 19:54:00,
2013-06-14 14:04:00,63.7,39.5,29.96,WSW,248,11.4,13.9,41,0.01,,,0.00,WUHU216HW,2013-06-14 20:04:00,
2013-06-14 14:14:00,64.6,40.3,29.96,WSW,248,6.0,11.2,41,0.01,,,0.00,WUHU216HW,2013-06-14 20:14:00,
2013-06-14 14:24:00,64.8,40.0,29.96,WSW,248,6.9,12.1,40,0.01,,,0.00,WUHU216HW,2013-06-14 20:24:00,
2013-06-14 14:34:00,63.9,37.7,29.96,West,270,6.9,9.6,38,0.01,,,0.00,WUHU216HW,2013-06-14 20:34:00,
2013-06-14 14:44:00,63.5,36.6,29.96,SW,225,7.8,11.0,37,0.00,,,0.00,WUHU216HW,2013-06-14 20:44:00,
2013-06-14 14:54:00,63.5,38.1,29.95,West,270,6.9,14.8,39,0.00,,,0.00,WUHU216HW,2013-06-14 20:54:00,
2013-06-14 15:04:00,63.9,38.4,29.95,WSW,248,8.5,15.4,39,0.00,,,0.00,WUHU216HW,2013-06-14 21:04:00,
2013-06-14 15:14:00,64.6,39.1,29.95,WNW,293,5.4,11.4,39,0.00,,,0.00,WUHU216HW,2013-06-14 21:14:00,
2013-06-14 15:24:00,65.5,39.9,29.95,SW,225,6.7,12.3,39,0.00,,,0.00,WUHU216HW,2013-06-14 21:24:00,
2013-06-14 15:34:00,66.1,39.6,29.95,West,270,6.7,9.8,38,0.00,,,0.00,WUHU216HW,2013-06-14 21:34:00,
2013-06-14 15:44:00,65.7,39.3,29.95,WNW,293,5.4,10.5,38,0.00,,,0.00,WUHU216HW,2013-06-14 21:44:00,
2013-06-14 15:54:00,65.2,38.8,29.95,WSW,248,15.0,17.9,38,0.00,,,0.00,WUHU216HW,2013-06-14 21:54:00,
2013-06-14 16:04:00,65.5,40.6,29.95,SSW,203,2.5,11.4,40,0.00,,,0.00,WUHU216HW,2013-06-14 22:04:00,
2013-06-14 16:14:00,65.7,40.8,29.96,NW,315,3.6,9.2,40,0.00,,,0.00,WUHU216HW,2013-06-14 22:14:00,
2013-06-14 16:24:00,65.7,40.8,29.95,WSW,248,6.9,8.9,40,0.00,,,0.00,WUHU216HW,2013-06-14 22:24:00,
2013-06-14 16:34:00,65.7,40.8,29.95,NW,315,7.4,9.4,40,0.00,,,0.00,WUHU216HW,2013-06-14 22:34:00,
2013-06-14 16:44:00,65.9,40.9,29.94,WSW,248,3.8,9.4,40,0.00,,,0.00,WUHU216HW,2013-06-14 22:44:00,
2013-06-14 16:54:00,66.4,41.4,29.94,SE,135,3.4,8.1,40,0.00,,,0.00,WUHU216HW,2013-06-14 22:54:00,
2013-06-14 17:04:00,66.1,41.0,29.94,South,180,1.8,8.5,40,0.00,,,0.00,WUHU216HW,2013-06-14 23:04:00,
2013-06-14 17:14:00,65.9,41.5,29.94,WSW,248,2.5,8.9,41,0.00,,,0.00,WUHU216HW,2013-06-14 23:14:00,
2013-06-14 17:24:00,66.6,40.9,29.94,SW,225,8.5,8.9,39,0.00,,,0.00,WUHU216HW,2013-06-14 23:24:00,
2013-06-14 17:34:00,66.8,41.7,29.94,West,270,2.0,9.4,40,0.00,,,0.00,WUHU216HW,2013-06-14 23:34:00,
2013-06-14 17:44:00,66.4,41.4,29.94,WSW,248,3.4,9.6,40,0.00,,,0.00,WUHU216HW,2013-06-14 23:44:00,
2013-06-14 17:54:00,66.1,40.3,29.94,WNW,293,5.4,7.6,39,0.00,,,0.00,WUHU216HW,2013-06-14 23:54:00,
2013-06-14 18:04:00,65.7,40.1,29.94,WSW,248,6.3,7.2,39,0.00,,,0.00,WUHU216HW,2013-06-15 00:04:00,
2013-06-14 18:14:00,65.2,39.5,29.94,West,270,1.8,8.1,39,0.00,,,0.00,WUHU216HW,2013-06-15 00:14:00,
2013-06-14 18:24:00,65.5,39.2,29.94,WNW,293,4.5,8.3,38,0.00,,,0.00,WUHU216HW,2013-06-15 00:24:00,
2013-06-14 18:34:00,65.3,39.0,29.94,WNW,293,4.5,4.7,38,0.00,,,0.00,WUHU216HW,2013-06-15 00:34:00,
2013-06-14 18:44:00,65.2,38.8,29.94,SSW,203,2.9,8.1,38,0.00,,,0.00,WUHU216HW,2013-06-15 00:44:00,
2013-06-14 18:54:00,65.3,38.3,29.94,NNW,338,2.2,8.7,37,0.00,,,0.00,WUHU216HW,2013-06-15 00:54:00,
2013-06-14 19:04:00,65.3,38.3,29.94,WNW,293,4.9,7.6,37,0.00,,,0.00,WUHU216HW,2013-06-15 01:04:00,
2013-06-14 19:15:00,65.2,38.8,29.94,West,270,6.3,7.6,38,0.00,,,0.00,WUHU216HW,2013-06-15 01:15:00,
2013-06-14 19:25:00,65.0,37.9,29.94,West,270,3.8,7.6,37,0.00,,,0.00,WUHU216HW,2013-06-15 01:25:00,
2013-06-14 19:35:00,65.0,37.9,29.94,NNW,338,4.7,5.6,37,0.00,,,0.00,WUHU216HW,2013-06-15 01:35:00,
2013-06-14 19:45:00,64.4,37.4,29.94,West,270,4.9,6.9,37,0.00,,,0.00,WUHU216HW,2013-06-15 01:45:00,
2013-06-14 19:55:00,63.5,36.6,29.94,West,270,2.7,8.9,37,0.00,,,0.00,WUHU216HW,2013-06-15 01:55:00,
2013-06-14 20:05:00,63.2,36.3,29.94,NW,315,4.7,7.4,37,0.00,,,0.00,WUHU216HW,2013-06-15 02:05:00,
2013-06-14 20:15:00,63.0,36.9,29.94,West,270,1.1,5.6,38,0.00,,,0.00,WUHU216HW,2013-06-15 02:15:00,
2013-06-14 20:25:00,63.2,37.7,29.94,WSW,248,1.6,2.9,39,0.00,,,0.00,WUHU216HW,2013-06-15 02:25:00,
2013-06-14 20:35:00,63.2,37.0,29.94,WSW,248,3.6,5.4,38,0.00,,,0.00,WUHU216HW,2013-06-15 02:35:00,
2013-06-14 20:45:00,63.2,37.7,29.94,WSW,248,0.4,2.7,39,0.00,,,0.00,WUHU216HW,2013-06-15 02:45:00,
2013-06-14 20:55:00,63.0,37.6,29.94,West,270,1.3,2.0,39,0.00,,,0.00,WUHU216HW,2013-06-15 02:55:00,
2013-06-14 21:05:00,62.6,37.3,29.94,WNW,293,1.3,2.5,39,0.00,,,0.00,WUHU216HW,2013-06-15 03:05:00,
2013-06-14 21:15:00,61.9,37.4,29.94,NNE,23,0.0,1.1,40,0.00,,,0.00,WUHU216HW,2013-06-15 03:15:00,
2013-06-14 21:25:00,61.2,37.3,29.94,SW,225,0.9,2.7,41,0.00,,,0.00,WUHU216HW,2013-06-15 03:25:00,
2013-06-14 21:35:00,60.7,36.8,29.95,WSW,248,0.7,1.6,41,0.00,,,0.00,WUHU216HW,2013-06-15 03:35:00,
2013-06-14 21:45:00,60.1,36.9,29.95,West,270,0.0,1.3,42,0.00,,,0.00,WUHU216HW,2013-06-15 03:45:00,
2013-06-14 21:55:00,59.4,36.8,29.95,South,180,0.0,0.4,43,0.00,,,0.00,WUHU216HW,2013-06-15 03:55:00,
2013-06-14 22:05:00,58.5,36.5,29.96,West,270,1.8,1.8,44,0.00,,,0.00,WUHU216HW,2013-06-15 04:05:00,
2013-06-14 22:15:00,58.0,36.6,29.96,South,180,2.0,3.1,45,0.00,,,0.00,WUHU216HW,2013-06-15 04:15:00,
2013-06-14 22:25:00,57.2,36.5,29.96,SSE,158,0.7,2.5,46,0.00,,,0.00,WUHU216HW,2013-06-15 04:25:00,
2013-06-14 22:35:00,56.7,36.1,29.96,SSE,158,1.1,2.2,46,0.00,,,0.00,WUHU216HW,2013-06-15 04:35:00,
2013-06-14 22:45:00,56.2,36.1,29.97,South,180,1.8,2.7,47,0.00,,,0.00,WUHU216HW,2013-06-15 04:45:00,
2013-06-14 22:55:00,55.8,35.7,29.97,SE,135,2.5,2.7,47,0.00,,,0.00,WUHU216HW,2013-06-15 04:55:00,
2013-06-14 23:05:00,55.4,36.0,29.97,SSE,158,2.2,4.7,48,0.00,,,0.00,WUHU216HW,2013-06-15 05:05:00,
2013-06-14 23:15:00,54.9,36.0,29.96,SSW,203,1.3,2.9,49,0.00,,,0.00,WUHU216HW,2013-06-15 05:15:00,
2013-06-14 23:25:00,54.4,35.6,29.96,NW,315,0.0,2.7,49,0.00,,,0.00,WUHU216HW,2013-06-15 05:25:00,
2013-06-14 23:35:00,53.5,35.7,29.96,SW,225,1.8,1.8,51,0.00,,,0.00,WUHU216HW,2013-06-15 05:35:00,
2013-06-14 23:45:00,52.7,35.6,29.97,WSW,248,0.9,2.0,52,0.00,,,0.00,WUHU216HW,2013-06-15 05:45:00,
2013-06-14 23:55:00,52.4,35.7,29.97,SW,225,0.4,1.1,53,0.00,,,0.00,WUHU216HW,2013-06-15 05:55:00,